sensor_id;sensor_type;location;lat;lon;timestamp;P1;durP1;ratioP1;P2;durP2;ratioP2
61473;SDS011;53694;49.784;30.150;2023-08-17T00:00:30;10.00;;;6.59;;
61473;SDS011;53694;49.784;30.150;2023-08-17T00:01:32;10.91;;;6.85;;
61473;SDS011;53694;49.784;30.150;2023-08-17T00:02:34;12.79;;;7.59;;
61473;SDS011;53694;49.784;30.150;2023-08-17T00:03:35;10.46;;;6.87;;
61473;SDS011;53694;49.784;30.150;2023-08-17T00:04:37;13.57;;;7.43;;
61473;SDS011;53694;49.784;30.150;2023-08-17T00:05:39;10.19;;;7.52;;
61473;SDS011;53694;49.784;30.150;2023-08-17T00:06:41;12.69;;;7.45;;
61473;SDS011;53694;49.784;30.150;2023-08-17T00:07:42;12.66;;;8.02;;
61473;SDS011;53694;49.784;30.150;2023-08-17T00:08:44;11.56;;;7.51;;
61473;SDS011;53694;49.784;30.150;2023-08-17T00:09:45;11.08;;;7.91;;
61473;SDS011;53694;49.784;30.150;2023-08-17T00:10:47;13.89;;;7.28;;
61473;SDS011;53694;49.784;30.150;2023-08-17T00:11:48;9.97;;;6.64;;
61473;SDS011;53694;49.784;30.150;2023-08-17T00:12:50;9.76;;;6.54;;
61473;SDS011;53694;49.784;30.150;2023-08-17T00:13:51;10.23;;;6.44;;
61473;SDS011;53694;49.784;30.150;2023-08-17T00:14:53;10.16;;;6.12;;
61473;SDS011;53694;49.784;30.150;2023-08-17T00:15:55;9.77;;;5.77;;
61473;SDS011;53694;49.784;30.150;2023-08-17T00:16:56;9.96;;;6.07;;
61473;SDS011;53694;49.784;30.150;2023-08-17T00:17:58;8.04;;;5.95;;
61473;SDS011;53694;49.784;30.150;2023-08-17T00:18:59;10.18;;;5.97;;
61473;SDS011;53694;49.784;30.150;2023-08-17T00:20:00;9.93;;;6.16;;
61473;SDS011;53694;49.784;30.150;2023-08-17T00:21:02;9.29;;;6.33;;
61473;SDS011;53694;49.784;30.150;2023-08-17T00:22:04;12.29;;;6.59;;
61473;SDS011;53694;49.784;30.150;2023-08-17T00:23:06;10.11;;;6.66;;
61473;SDS011;53694;49.784;30.150;2023-08-17T00:24:07;10.34;;;7.16;;
61473;SDS011;53694;49.784;30.150;2023-08-17T00:25:09;9.78;;;7.29;;
61473;SDS011;53694;49.784;30.150;2023-08-17T00:26:11;11.18;;;7.03;;
61473;SDS011;53694;49.784;30.150;2023-08-17T00:27:12;11.24;;;7.14;;
61473;SDS011;53694;49.784;30.150;2023-08-17T00:28:14;10.91;;;7.56;;
61473;SDS011;53694;49.784;30.150;2023-08-17T00:29:15;12.49;;;7.15;;
61473;SDS011;53694;49.784;30.150;2023-08-17T00:30:17;11.53;;;7.40;;
61473;SDS011;53694;49.784;30.150;2023-08-17T00:31:19;13.00;;;7.12;;
61473;SDS011;53694;49.784;30.150;2023-08-17T00:32:21;12.16;;;6.26;;
61473;SDS011;53694;49.784;30.150;2023-08-17T00:33:22;8.50;;;5.85;;
61473;SDS011;53694;49.784;30.150;2023-08-17T00:34:24;10.21;;;6.32;;
61473;SDS011;53694;49.784;30.150;2023-08-17T00:35:25;10.34;;;5.74;;
61473;SDS011;53694;49.784;30.150;2023-08-17T00:36:27;9.86;;;5.74;;
61473;SDS011;53694;49.784;30.150;2023-08-17T00:37:28;10.99;;;6.39;;
61473;SDS011;53694;49.784;30.150;2023-08-17T00:38:30;9.61;;;5.73;;
61473;SDS011;53694;49.784;30.150;2023-08-17T00:39:31;8.49;;;5.54;;
61473;SDS011;53694;49.784;30.150;2023-08-17T00:40:33;11.39;;;5.93;;
61473;SDS011;53694;49.784;30.150;2023-08-17T00:41:35;9.29;;;5.44;;
61473;SDS011;53694;49.784;30.150;2023-08-17T00:42:37;10.06;;;6.43;;
61473;SDS011;53694;49.784;30.150;2023-08-17T00:43:38;10.54;;;6.33;;
61473;SDS011;53694;49.784;30.150;2023-08-17T00:44:40;9.84;;;6.39;;
61473;SDS011;53694;49.784;30.150;2023-08-17T00:45:41;11.15;;;6.91;;
61473;SDS011;53694;49.784;30.150;2023-08-17T00:46:46;12.87;;;6.93;;
61473;SDS011;53694;49.784;30.150;2023-08-17T00:47:48;13.05;;;7.46;;
61473;SDS011;53694;49.784;30.150;2023-08-17T00:48:50;12.93;;;7.36;;
61473;SDS011;53694;49.784;30.150;2023-08-17T00:49:52;9.46;;;6.87;;
61473;SDS011;53694;49.784;30.150;2023-08-17T00:50:54;10.67;;;7.64;;
61473;SDS011;53694;49.784;30.150;2023-08-17T00:51:58;11.71;;;7.65;;
61473;SDS011;53694;49.784;30.150;2023-08-17T00:53:02;13.41;;;7.41;;
61473;SDS011;53694;49.784;30.150;2023-08-17T00:54:04;9.97;;;7.21;;
61473;SDS011;53694;49.784;30.150;2023-08-17T00:55:06;9.47;;;6.54;;
61473;SDS011;53694;49.784;30.150;2023-08-17T00:56:10;12.08;;;6.25;;
61473;SDS011;53694;49.784;30.150;2023-08-17T00:57:11;12.54;;;6.29;;
61473;SDS011;53694;49.784;30.150;2023-08-17T00:58:14;16.30;;;6.11;;
61473;SDS011;53694;49.784;30.150;2023-08-17T00:59:16;11.48;;;6.96;;
61473;SDS011;53694;49.784;30.150;2023-08-17T01:00:17;14.64;;;6.77;;
61473;SDS011;53694;49.784;30.150;2023-08-17T01:01:19;11.39;;;6.76;;
61473;SDS011;53694;49.784;30.150;2023-08-17T01:02:21;11.37;;;6.77;;
61473;SDS011;53694;49.784;30.150;2023-08-17T01:03:24;12.54;;;6.61;;
61473;SDS011;53694;49.784;30.150;2023-08-17T01:04:29;11.28;;;7.23;;
61473;SDS011;53694;49.784;30.150;2023-08-17T01:05:30;11.19;;;6.81;;
61473;SDS011;53694;49.784;30.150;2023-08-17T01:06:33;11.99;;;6.46;;
61473;SDS011;53694;49.784;30.150;2023-08-17T01:07:34;10.50;;;7.22;;
61473;SDS011;53694;49.784;30.150;2023-08-17T01:08:36;12.33;;;7.91;;
61473;SDS011;53694;49.784;30.150;2023-08-17T01:09:39;11.09;;;7.53;;
61473;SDS011;53694;49.784;30.150;2023-08-17T01:11:05;11.31;;;8.00;;
61473;SDS011;53694;49.784;30.150;2023-08-17T01:13:11;10.29;;;7.14;;
61473;SDS011;53694;49.784;30.150;2023-08-17T01:14:21;11.91;;;6.87;;
61473;SDS011;53694;49.784;30.150;2023-08-17T01:15:36;10.65;;;6.59;;
61473;SDS011;53694;49.784;30.150;2023-08-17T01:16:42;10.60;;;6.88;;
61473;SDS011;53694;49.784;30.150;2023-08-17T01:17:56;11.13;;;6.51;;
61473;SDS011;53694;49.784;30.150;2023-08-17T01:19:00;11.47;;;6.98;;
61473;SDS011;53694;49.784;30.150;2023-08-17T01:20:03;10.46;;;6.47;;
61473;SDS011;53694;49.784;30.150;2023-08-17T01:21:06;11.38;;;6.32;;
61473;SDS011;53694;49.784;30.150;2023-08-17T01:22:11;9.64;;;5.86;;
61473;SDS011;53694;49.784;30.150;2023-08-17T01:23:15;9.50;;;6.38;;
61473;SDS011;53694;49.784;30.150;2023-08-17T01:24:17;11.00;;;6.94;;
61473;SDS011;53694;49.784;30.150;2023-08-17T01:25:18;9.45;;;7.01;;
61473;SDS011;53694;49.784;30.150;2023-08-17T01:26:20;10.83;;;6.91;;
61473;SDS011;53694;49.784;30.150;2023-08-17T01:27:21;12.69;;;6.66;;
61473;SDS011;53694;49.784;30.150;2023-08-17T01:28:23;11.29;;;7.04;;
61473;SDS011;53694;49.784;30.150;2023-08-17T01:29:25;14.51;;;7.42;;
61473;SDS011;53694;49.784;30.150;2023-08-17T01:30:27;10.33;;;7.17;;
61473;SDS011;53694;49.784;30.150;2023-08-17T01:31:32;12.70;;;7.99;;
61473;SDS011;53694;49.784;30.150;2023-08-17T01:33:01;14.06;;;7.32;;
61473;SDS011;53694;49.784;30.150;2023-08-17T01:34:04;11.09;;;6.68;;
61473;SDS011;53694;49.784;30.150;2023-08-17T01:35:14;11.31;;;7.21;;
61473;SDS011;53694;49.784;30.150;2023-08-17T01:36:26;8.68;;;6.08;;
61473;SDS011;53694;49.784;30.150;2023-08-17T01:37:31;10.77;;;6.51;;
61473;SDS011;53694;49.784;30.150;2023-08-17T01:38:36;10.13;;;6.28;;
61473;SDS011;53694;49.784;30.150;2023-08-17T01:39:42;9.51;;;6.46;;
61473;SDS011;53694;49.784;30.150;2023-08-17T01:40:45;10.39;;;6.67;;
61473;SDS011;53694;49.784;30.150;2023-08-17T01:41:49;9.55;;;6.40;;
61473;SDS011;53694;49.784;30.150;2023-08-17T01:42:52;10.22;;;6.15;;
61473;SDS011;53694;49.784;30.150;2023-08-17T01:43:55;9.06;;;6.89;;
61473;SDS011;53694;49.784;30.150;2023-08-17T01:44:58;11.81;;;8.15;;
61473;SDS011;53694;49.784;30.150;2023-08-17T01:46:00;12.36;;;7.70;;
61473;SDS011;53694;49.784;30.150;2023-08-17T01:47:01;12.56;;;7.48;;
61473;SDS011;53694;49.784;30.150;2023-08-17T01:48:03;12.93;;;8.10;;
61473;SDS011;53694;49.784;30.150;2023-08-17T01:49:06;12.73;;;8.06;;
61473;SDS011;53694;49.784;30.150;2023-08-17T01:50:08;13.31;;;7.94;;
61473;SDS011;53694;49.784;30.150;2023-08-17T01:51:11;12.08;;;7.86;;
61473;SDS011;53694;49.784;30.150;2023-08-17T01:52:14;12.96;;;7.52;;
61473;SDS011;53694;49.784;30.150;2023-08-17T01:53:16;11.81;;;7.60;;
61473;SDS011;53694;49.784;30.150;2023-08-17T01:54:17;9.85;;;6.60;;
61473;SDS011;53694;49.784;30.150;2023-08-17T01:55:20;9.69;;;6.67;;
61473;SDS011;53694;49.784;30.150;2023-08-17T01:56:23;8.90;;;5.86;;
61473;SDS011;53694;49.784;30.150;2023-08-17T01:57:24;13.13;;;6.49;;
61473;SDS011;53694;49.784;30.150;2023-08-17T01:58:26;8.47;;;5.76;;
61473;SDS011;53694;49.784;30.150;2023-08-17T01:59:27;9.14;;;6.04;;
61473;SDS011;53694;49.784;30.150;2023-08-17T02:00:29;9.83;;;5.98;;
61473;SDS011;53694;49.784;30.150;2023-08-17T02:01:31;11.14;;;5.80;;
61473;SDS011;53694;49.784;30.150;2023-08-17T02:02:32;9.52;;;5.45;;
61473;SDS011;53694;49.784;30.150;2023-08-17T02:03:34;9.49;;;5.55;;
61473;SDS011;53694;49.784;30.150;2023-08-17T02:04:36;8.81;;;6.48;;
61473;SDS011;53694;49.784;30.150;2023-08-17T02:05:37;9.11;;;5.90;;
61473;SDS011;53694;49.784;30.150;2023-08-17T02:06:39;9.94;;;6.49;;
61473;SDS011;53694;49.784;30.150;2023-08-17T02:07:40;9.06;;;6.69;;
61473;SDS011;53694;49.784;30.150;2023-08-17T02:08:41;12.30;;;7.01;;
61473;SDS011;53694;49.784;30.150;2023-08-17T02:09:43;10.18;;;6.80;;
61473;SDS011;53694;49.784;30.150;2023-08-17T02:10:45;9.64;;;6.42;;
61473;SDS011;53694;49.784;30.150;2023-08-17T02:11:46;10.39;;;6.41;;
61473;SDS011;53694;49.784;30.150;2023-08-17T02:12:48;8.50;;;5.87;;
61473;SDS011;53694;49.784;30.150;2023-08-17T02:13:49;9.92;;;6.12;;
61473;SDS011;53694;49.784;30.150;2023-08-17T02:14:51;10.33;;;6.12;;
61473;SDS011;53694;49.784;30.150;2023-08-17T02:15:52;10.26;;;6.06;;
61473;SDS011;53694;49.784;30.150;2023-08-17T02:16:54;8.89;;;5.77;;
61473;SDS011;53694;49.784;30.150;2023-08-17T02:17:56;10.40;;;5.66;;
61473;SDS011;53694;49.784;30.150;2023-08-17T02:19:00;8.64;;;5.49;;
61473;SDS011;53694;49.784;30.150;2023-08-17T02:20:01;10.60;;;5.61;;
61473;SDS011;53694;49.784;30.150;2023-08-17T02:21:03;10.53;;;5.58;;
61473;SDS011;53694;49.784;30.150;2023-08-17T02:22:05;10.07;;;5.69;;
61473;SDS011;53694;49.784;30.150;2023-08-17T02:23:06;8.41;;;5.68;;
61473;SDS011;53694;49.784;30.150;2023-08-17T02:24:08;10.05;;;5.90;;
61473;SDS011;53694;49.784;30.150;2023-08-17T02:25:10;8.56;;;6.21;;
61473;SDS011;53694;49.784;30.150;2023-08-17T02:26:12;10.46;;;6.26;;
61473;SDS011;53694;49.784;30.150;2023-08-17T02:27:13;10.49;;;6.78;;
61473;SDS011;53694;49.784;30.150;2023-08-17T02:28:15;10.61;;;7.07;;
61473;SDS011;53694;49.784;30.150;2023-08-17T02:29:16;11.61;;;7.21;;
61473;SDS011;53694;49.784;30.150;2023-08-17T02:30:18;11.96;;;7.05;;
61473;SDS011;53694;49.784;30.150;2023-08-17T02:31:19;9.35;;;6.20;;
61473;SDS011;53694;49.784;30.150;2023-08-17T02:32:22;8.23;;;5.93;;
61473;SDS011;53694;49.784;30.150;2023-08-17T02:33:24;10.11;;;6.21;;
61473;SDS011;53694;49.784;30.150;2023-08-17T02:34:25;11.11;;;5.84;;
61473;SDS011;53694;49.784;30.150;2023-08-17T02:35:27;15.74;;;6.14;;
61473;SDS011;53694;49.784;30.150;2023-08-17T02:36:29;13.56;;;6.06;;
61473;SDS011;53694;49.784;30.150;2023-08-17T02:37:30;8.76;;;5.62;;
61473;SDS011;53694;49.784;30.150;2023-08-17T02:38:32;9.59;;;6.01;;
61473;SDS011;53694;49.784;30.150;2023-08-17T02:39:34;9.66;;;5.71;;
61473;SDS011;53694;49.784;30.150;2023-08-17T02:40:35;10.95;;;5.84;;
61473;SDS011;53694;49.784;30.150;2023-08-17T02:41:37;12.54;;;6.29;;
61473;SDS011;53694;49.784;30.150;2023-08-17T02:42:38;10.28;;;6.21;;
61473;SDS011;53694;49.784;30.150;2023-08-17T02:43:40;12.69;;;6.89;;
61473;SDS011;53694;49.784;30.150;2023-08-17T02:44:41;12.48;;;6.75;;
61473;SDS011;53694;49.784;30.150;2023-08-17T02:45:43;9.97;;;6.86;;
61473;SDS011;53694;49.784;30.150;2023-08-17T02:46:44;12.06;;;7.48;;
61473;SDS011;53694;49.784;30.150;2023-08-17T02:47:46;16.02;;;7.29;;
61473;SDS011;53694;49.784;30.150;2023-08-17T02:48:48;9.55;;;7.25;;
61473;SDS011;53694;49.784;30.150;2023-08-17T02:49:49;11.72;;;7.13;;
61473;SDS011;53694;49.784;30.150;2023-08-17T02:50:51;16.49;;;7.64;;
61473;SDS011;53694;49.784;30.150;2023-08-17T02:51:52;9.87;;;7.06;;
61473;SDS011;53694;49.784;30.150;2023-08-17T02:52:53;9.69;;;6.94;;
61473;SDS011;53694;49.784;30.150;2023-08-17T02:53:55;10.86;;;6.56;;
61473;SDS011;53694;49.784;30.150;2023-08-17T02:54:56;12.74;;;6.17;;
61473;SDS011;53694;49.784;30.150;2023-08-17T02:55:58;9.53;;;6.28;;
61473;SDS011;53694;49.784;30.150;2023-08-17T02:57:00;10.02;;;6.54;;
61473;SDS011;53694;49.784;30.150;2023-08-17T02:58:01;10.76;;;5.96;;
61473;SDS011;53694;49.784;30.150;2023-08-17T02:59:03;9.92;;;6.20;;
61473;SDS011;53694;49.784;30.150;2023-08-17T03:00:06;7.99;;;6.11;;
61473;SDS011;53694;49.784;30.150;2023-08-17T03:01:08;11.14;;;6.27;;
61473;SDS011;53694;49.784;30.150;2023-08-17T03:02:10;8.63;;;5.90;;
61473;SDS011;53694;49.784;30.150;2023-08-17T03:03:11;8.54;;;5.74;;
61473;SDS011;53694;49.784;30.150;2023-08-17T03:04:13;12.10;;;8.11;;
61473;SDS011;53694;49.784;30.150;2023-08-17T03:05:15;11.50;;;6.69;;
61473;SDS011;53694;49.784;30.150;2023-08-17T03:06:16;8.64;;;6.59;;
61473;SDS011;53694;49.784;30.150;2023-08-17T03:07:18;8.25;;;6.72;;
61473;SDS011;53694;49.784;30.150;2023-08-17T03:08:19;12.41;;;7.86;;
61473;SDS011;53694;49.784;30.150;2023-08-17T03:09:21;12.96;;;7.91;;
61473;SDS011;53694;49.784;30.150;2023-08-17T03:10:23;12.71;;;7.74;;
61473;SDS011;53694;49.784;30.150;2023-08-17T03:11:24;12.42;;;8.54;;
61473;SDS011;53694;49.784;30.150;2023-08-17T03:12:26;13.21;;;8.21;;
61473;SDS011;53694;49.784;30.150;2023-08-17T03:13:27;14.39;;;8.45;;
61473;SDS011;53694;49.784;30.150;2023-08-17T03:14:29;12.09;;;8.19;;
61473;SDS011;53694;49.784;30.150;2023-08-17T03:15:30;12.84;;;7.73;;
61473;SDS011;53694;49.784;30.150;2023-08-17T03:16:32;12.16;;;7.06;;
61473;SDS011;53694;49.784;30.150;2023-08-17T03:17:33;10.77;;;7.42;;
61473;SDS011;53694;49.784;30.150;2023-08-17T03:18:35;13.35;;;6.96;;
61473;SDS011;53694;49.784;30.150;2023-08-17T03:19:36;12.14;;;7.36;;
61473;SDS011;53694;49.784;30.150;2023-08-17T03:20:38;8.99;;;7.12;;
61473;SDS011;53694;49.784;30.150;2023-08-17T03:21:40;14.86;;;8.46;;
61473;SDS011;53694;49.784;30.150;2023-08-17T03:22:41;10.24;;;7.19;;
61473;SDS011;53694;49.784;30.150;2023-08-17T03:23:43;10.44;;;7.38;;
61473;SDS011;53694;49.784;30.150;2023-08-17T03:24:44;10.90;;;7.06;;
61473;SDS011;53694;49.784;30.150;2023-08-17T03:25:50;11.87;;;7.39;;
61473;SDS011;53694;49.784;30.150;2023-08-17T03:26:53;12.37;;;7.54;;
61473;SDS011;53694;49.784;30.150;2023-08-17T03:27:55;13.81;;;7.46;;
61473;SDS011;53694;49.784;30.150;2023-08-17T03:28:57;10.91;;;7.52;;
61473;SDS011;53694;49.784;30.150;2023-08-17T03:29:58;11.22;;;7.94;;
61473;SDS011;53694;49.784;30.150;2023-08-17T03:31:00;13.96;;;8.54;;
61473;SDS011;53694;49.784;30.150;2023-08-17T03:32:01;12.97;;;8.39;;
61473;SDS011;53694;49.784;30.150;2023-08-17T03:33:03;11.86;;;8.91;;
61473;SDS011;53694;49.784;30.150;2023-08-17T03:34:05;12.93;;;8.51;;
61473;SDS011;53694;49.784;30.150;2023-08-17T03:35:07;12.19;;;8.86;;
61473;SDS011;53694;49.784;30.150;2023-08-17T03:36:09;14.23;;;9.58;;
61473;SDS011;53694;49.784;30.150;2023-08-17T03:37:10;12.74;;;8.80;;
61473;SDS011;53694;49.784;30.150;2023-08-17T03:38:12;15.70;;;8.58;;
61473;SDS011;53694;49.784;30.150;2023-08-17T03:39:14;14.23;;;8.10;;
61473;SDS011;53694;49.784;30.150;2023-08-17T03:40:15;11.41;;;7.92;;
61473;SDS011;53694;49.784;30.150;2023-08-17T03:41:17;11.16;;;7.46;;
61473;SDS011;53694;49.784;30.150;2023-08-17T03:42:19;13.95;;;8.26;;
61473;SDS011;53694;49.784;30.150;2023-08-17T03:43:20;13.09;;;7.88;;
61473;SDS011;53694;49.784;30.150;2023-08-17T03:44:22;12.41;;;7.96;;
61473;SDS011;53694;49.784;30.150;2023-08-17T03:45:24;11.94;;;7.45;;
61473;SDS011;53694;49.784;30.150;2023-08-17T03:46:25;11.62;;;7.47;;
61473;SDS011;53694;49.784;30.150;2023-08-17T03:47:27;9.48;;;7.03;;
61473;SDS011;53694;49.784;30.150;2023-08-17T03:48:28;13.21;;;7.37;;
61473;SDS011;53694;49.784;30.150;2023-08-17T03:49:30;13.06;;;8.38;;
61473;SDS011;53694;49.784;30.150;2023-08-17T03:50:31;12.55;;;8.11;;
61473;SDS011;53694;49.784;30.150;2023-08-17T03:51:33;14.99;;;8.11;;
61473;SDS011;53694;49.784;30.150;2023-08-17T03:52:34;14.88;;;8.60;;
61473;SDS011;53694;49.784;30.150;2023-08-17T03:53:35;13.64;;;8.71;;
61473;SDS011;53694;49.784;30.150;2023-08-17T03:54:37;15.41;;;8.64;;
61473;SDS011;53694;49.784;30.150;2023-08-17T03:55:39;13.31;;;8.86;;
61473;SDS011;53694;49.784;30.150;2023-08-17T03:56:44;12.89;;;8.88;;
61473;SDS011;53694;49.784;30.150;2023-08-17T03:57:45;15.45;;;8.28;;
61473;SDS011;53694;49.784;30.150;2023-08-17T03:58:47;11.21;;;8.04;;
61473;SDS011;53694;49.784;30.150;2023-08-17T03:59:48;11.30;;;7.81;;
61473;SDS011;53694;49.784;30.150;2023-08-17T04:00:50;13.51;;;7.81;;
61473;SDS011;53694;49.784;30.150;2023-08-17T04:01:52;10.32;;;7.48;;
61473;SDS011;53694;49.784;30.150;2023-08-17T04:02:54;10.78;;;7.54;;
61473;SDS011;53694;49.784;30.150;2023-08-17T04:03:55;14.46;;;7.78;;
61473;SDS011;53694;49.784;30.150;2023-08-17T04:04:57;11.74;;;7.78;;
61473;SDS011;53694;49.784;30.150;2023-08-17T04:06:02;11.75;;;7.82;;
61473;SDS011;53694;49.784;30.150;2023-08-17T04:07:08;12.74;;;7.99;;
61473;SDS011;53694;49.784;30.150;2023-08-17T04:08:09;10.27;;;7.51;;
61473;SDS011;53694;49.784;30.150;2023-08-17T04:09:11;14.09;;;8.77;;
61473;SDS011;53694;49.784;30.150;2023-08-17T04:10:13;10.00;;;8.35;;
61473;SDS011;53694;49.784;30.150;2023-08-17T04:11:15;14.99;;;10.64;;
61473;SDS011;53694;49.784;30.150;2023-08-17T04:12:16;17.91;;;10.71;;
61473;SDS011;53694;49.784;30.150;2023-08-17T04:13:18;13.54;;;10.11;;
61473;SDS011;53694;49.784;30.150;2023-08-17T04:14:19;15.38;;;10.61;;
61473;SDS011;53694;49.784;30.150;2023-08-17T04:15:21;15.44;;;10.29;;
61473;SDS011;53694;49.784;30.150;2023-08-17T04:16:22;17.16;;;10.62;;
61473;SDS011;53694;49.784;30.150;2023-08-17T04:17:24;15.62;;;9.16;;
61473;SDS011;53694;49.784;30.150;2023-08-17T04:18:25;13.83;;;8.76;;
61473;SDS011;53694;49.784;30.150;2023-08-17T04:19:27;12.09;;;8.06;;
61473;SDS011;53694;49.784;30.150;2023-08-17T04:20:28;14.32;;;8.49;;
61473;SDS011;53694;49.784;30.150;2023-08-17T04:21:30;13.94;;;8.24;;
61473;SDS011;53694;49.784;30.150;2023-08-17T04:22:31;15.29;;;7.77;;
61473;SDS011;53694;49.784;30.150;2023-08-17T04:23:33;16.91;;;9.91;;
61473;SDS011;53694;49.784;30.150;2023-08-17T04:24:34;16.32;;;9.91;;
61473;SDS011;53694;49.784;30.150;2023-08-17T04:25:36;17.37;;;11.75;;
61473;SDS011;53694;49.784;30.150;2023-08-17T04:26:37;17.93;;;12.71;;
61473;SDS011;53694;49.784;30.150;2023-08-17T04:27:39;16.86;;;12.06;;
61473;SDS011;53694;49.784;30.150;2023-08-17T04:28:41;17.71;;;12.62;;
61473;SDS011;53694;49.784;30.150;2023-08-17T04:29:42;18.84;;;13.69;;
61473;SDS011;53694;49.784;30.150;2023-08-17T04:30:44;21.58;;;14.86;;
61473;SDS011;53694;49.784;30.150;2023-08-17T04:31:45;20.03;;;15.48;;
61473;SDS011;53694;49.784;30.150;2023-08-17T04:32:47;17.91;;;15.47;;
61473;SDS011;53694;49.784;30.150;2023-08-17T04:33:48;24.48;;;16.36;;
61473;SDS011;53694;49.784;30.150;2023-08-17T04:34:50;18.46;;;15.29;;
61473;SDS011;53694;49.784;30.150;2023-08-17T04:35:51;22.78;;;17.34;;
61473;SDS011;53694;49.784;30.150;2023-08-17T04:36:53;24.81;;;18.10;;
61473;SDS011;53694;49.784;30.150;2023-08-17T04:37:54;18.96;;;15.41;;
61473;SDS011;53694;49.784;30.150;2023-08-17T04:38:56;19.39;;;13.64;;
61473;SDS011;53694;49.784;30.150;2023-08-17T04:39:57;18.78;;;13.30;;
61473;SDS011;53694;49.784;30.150;2023-08-17T04:40:59;17.44;;;12.36;;
61473;SDS011;53694;49.784;30.150;2023-08-17T04:42:02;16.00;;;11.46;;
61473;SDS011;53694;49.784;30.150;2023-08-17T04:43:05;18.88;;;11.66;;
61473;SDS011;53694;49.784;30.150;2023-08-17T04:44:06;18.76;;;11.14;;
61473;SDS011;53694;49.784;30.150;2023-08-17T04:45:08;15.88;;;12.14;;
61473;SDS011;53694;49.784;30.150;2023-08-17T04:46:10;16.05;;;11.01;;
61473;SDS011;53694;49.784;30.150;2023-08-17T04:47:11;15.14;;;10.39;;
61473;SDS011;53694;49.784;30.150;2023-08-17T04:48:13;15.86;;;11.48;;
61473;SDS011;53694;49.784;30.150;2023-08-17T04:49:15;15.82;;;10.74;;
61473;SDS011;53694;49.784;30.150;2023-08-17T04:50:17;18.01;;;11.57;;
61473;SDS011;53694;49.784;30.150;2023-08-17T04:51:18;19.96;;;13.97;;
61473;SDS011;53694;49.784;30.150;2023-08-17T04:52:20;15.51;;;11.63;;
61473;SDS011;53694;49.784;30.150;2023-08-17T04:53:21;19.81;;;12.56;;
61473;SDS011;53694;49.784;30.150;2023-08-17T04:54:23;17.19;;;12.14;;
61473;SDS011;53694;49.784;30.150;2023-08-17T04:55:25;18.84;;;11.69;;
61473;SDS011;53694;49.784;30.150;2023-08-17T04:56:26;16.74;;;12.09;;
61473;SDS011;53694;49.784;30.150;2023-08-17T04:57:28;17.44;;;11.96;;
61473;SDS011;53694;49.784;30.150;2023-08-17T04:58:29;17.80;;;11.29;;
61473;SDS011;53694;49.784;30.150;2023-08-17T04:59:31;15.90;;;10.65;;
61473;SDS011;53694;49.784;30.150;2023-08-17T05:00:32;13.35;;;9.98;;
61473;SDS011;53694;49.784;30.150;2023-08-17T05:01:34;14.49;;;9.79;;
61473;SDS011;53694;49.784;30.150;2023-08-17T05:02:35;15.31;;;10.12;;
61473;SDS011;53694;49.784;30.150;2023-08-17T05:03:38;13.19;;;9.89;;
61473;SDS011;53694;49.784;30.150;2023-08-17T05:04:39;15.31;;;10.48;;
61473;SDS011;53694;49.784;30.150;2023-08-17T05:05:40;14.57;;;11.24;;
61473;SDS011;53694;49.784;30.150;2023-08-17T05:06:42;14.98;;;12.08;;
61473;SDS011;53694;49.784;30.150;2023-08-17T05:07:44;15.20;;;11.46;;
61473;SDS011;53694;49.784;30.150;2023-08-17T05:08:45;20.15;;;12.66;;
61473;SDS011;53694;49.784;30.150;2023-08-17T05:09:47;18.30;;;13.46;;
61473;SDS011;53694;49.784;30.150;2023-08-17T05:10:48;20.56;;;13.53;;
61473;SDS011;53694;49.784;30.150;2023-08-17T05:11:50;18.83;;;14.51;;
61473;SDS011;53694;49.784;30.150;2023-08-17T05:12:51;20.69;;;15.34;;
61473;SDS011;53694;49.784;30.150;2023-08-17T05:13:53;19.88;;;15.24;;
61473;SDS011;53694;49.784;30.150;2023-08-17T05:14:54;19.42;;;15.49;;
61473;SDS011;53694;49.784;30.150;2023-08-17T05:15:56;21.20;;;15.93;;
61473;SDS011;53694;49.784;30.150;2023-08-17T05:16:58;21.06;;;15.69;;
61473;SDS011;53694;49.784;30.150;2023-08-17T05:17:59;21.41;;;15.14;;
61473;SDS011;53694;49.784;30.150;2023-08-17T05:19:01;18.04;;;12.86;;
61473;SDS011;53694;49.784;30.150;2023-08-17T05:20:03;17.99;;;12.64;;
61473;SDS011;53694;49.784;30.150;2023-08-17T05:21:05;16.86;;;11.87;;
61473;SDS011;53694;49.784;30.150;2023-08-17T05:22:09;16.52;;;10.59;;
61473;SDS011;53694;49.784;30.150;2023-08-17T05:23:11;13.08;;;9.26;;
61473;SDS011;53694;49.784;30.150;2023-08-17T05:24:12;10.88;;;8.00;;
61473;SDS011;53694;49.784;30.150;2023-08-17T05:25:14;9.38;;;7.17;;
61473;SDS011;53694;49.784;30.150;2023-08-17T05:26:16;14.55;;;7.18;;
61473;SDS011;53694;49.784;30.150;2023-08-17T05:27:18;12.79;;;7.23;;
61473;SDS011;53694;49.784;30.150;2023-08-17T05:28:19;9.49;;;6.86;;
61473;SDS011;53694;49.784;30.150;2023-08-17T05:29:21;10.56;;;6.94;;
61473;SDS011;53694;49.784;30.150;2023-08-17T05:30:23;12.39;;;6.80;;
61473;SDS011;53694;49.784;30.150;2023-08-17T05:31:24;11.03;;;6.65;;
61473;SDS011;53694;49.784;30.150;2023-08-17T05:32:26;12.87;;;7.40;;
61473;SDS011;53694;49.784;30.150;2023-08-17T05:33:27;11.79;;;6.92;;
61473;SDS011;53694;49.784;30.150;2023-08-17T05:34:28;10.01;;;6.79;;
61473;SDS011;53694;49.784;30.150;2023-08-17T05:35:30;9.48;;;6.79;;
61473;SDS011;53694;49.784;30.150;2023-08-17T05:36:33;11.23;;;6.96;;
61473;SDS011;53694;49.784;30.150;2023-08-17T05:37:34;9.43;;;7.01;;
61473;SDS011;53694;49.784;30.150;2023-08-17T05:38:36;11.89;;;7.21;;
61473;SDS011;53694;49.784;30.150;2023-08-17T05:39:37;8.94;;;6.63;;
61473;SDS011;53694;49.784;30.150;2023-08-17T05:40:39;9.44;;;6.45;;
61473;SDS011;53694;49.784;30.150;2023-08-17T05:41:40;9.74;;;6.34;;
61473;SDS011;53694;49.784;30.150;2023-08-17T05:42:42;11.61;;;6.07;;
61473;SDS011;53694;49.784;30.150;2023-08-17T05:43:43;9.01;;;6.09;;
61473;SDS011;53694;49.784;30.150;2023-08-17T05:44:45;8.88;;;5.62;;
61473;SDS011;53694;49.784;30.150;2023-08-17T05:45:46;7.94;;;6.15;;
61473;SDS011;53694;49.784;30.150;2023-08-17T05:46:48;11.46;;;5.94;;
61473;SDS011;53694;49.784;30.150;2023-08-17T05:47:49;8.01;;;6.30;;
61473;SDS011;53694;49.784;30.150;2023-08-17T05:48:51;11.33;;;6.34;;
61473;SDS011;53694;49.784;30.150;2023-08-17T05:49:52;12.89;;;6.81;;
61473;SDS011;53694;49.784;30.150;2023-08-17T05:50:55;11.12;;;6.64;;
61473;SDS011;53694;49.784;30.150;2023-08-17T05:51:57;10.28;;;7.41;;
61473;SDS011;53694;49.784;30.150;2023-08-17T05:52:58;10.46;;;7.74;;
61473;SDS011;53694;49.784;30.150;2023-08-17T05:54:00;17.01;;;8.49;;
61473;SDS011;53694;49.784;30.150;2023-08-17T05:55:01;10.86;;;7.20;;
61473;SDS011;53694;49.784;30.150;2023-08-17T05:56:03;10.85;;;7.25;;
61473;SDS011;53694;49.784;30.150;2023-08-17T05:57:05;11.99;;;6.81;;
61473;SDS011;53694;49.784;30.150;2023-08-17T05:58:06;10.04;;;7.22;;
61473;SDS011;53694;49.784;30.150;2023-08-17T05:59:08;10.02;;;7.50;;
61473;SDS011;53694;49.784;30.150;2023-08-17T06:00:10;9.10;;;7.27;;
61473;SDS011;53694;49.784;30.150;2023-08-17T06:01:13;9.65;;;6.44;;
61473;SDS011;53694;49.784;30.150;2023-08-17T06:02:15;10.27;;;6.17;;
61473;SDS011;53694;49.784;30.150;2023-08-17T06:03:16;9.45;;;6.06;;
61473;SDS011;53694;49.784;30.150;2023-08-17T06:04:18;9.27;;;5.93;;